Time;durP1;ratioP1;P1;durP2;ratioP2;P2;SDS_P1;SDS_P2;PMS_P1;PMS_P2;Temp;Humidity;BMP_temperature;BMP_pressure;BME280_temperature;BME280_humidity;BME280_pressure;Samples;Min_cycle;Max_cycle;Signal;HPM_P1;HPM_P2
2022/05/13 00:00:26;;;;;;;8.88;3.38;;;12.70;99.90;;;;;;5069156;28;20075;-72
2022/05/13 00:02:52;;;;;;;8.50;3.33;;;12.70;99.90;;;;;;5067869;28;20044;-73
2022/05/13 00:05:18;;;;;;;10.25;2.90;;;12.60;99.90;;;;;;5070415;28;20037;-73
2022/05/13 00:07:43;;;;;;;7.93;3.30;;;12.80;99.90;;;;;;5068903;28;20083;-73
2022/05/13 00:10:10;;;;;;;8.75;3.30;;;12.60;99.90;;;;;;5068064;28;20078;-72
2022/05/13 00:12:40;;;;;;;8.82;3.50;;;12.80;99.90;;;;;;5068178;28;20044;-72
2022/05/13 00:15:10;;;;;;;9.20;3.40;;;12.60;99.90;;;;;;5070747;28;20404;-73
2022/05/13 00:17:36;;;;;;;10.57;3.58;;;12.60;99.90;;;;;;5067272;28;20513;-73
2022/05/13 00:20:04;;;;;;;11.52;3.25;;;12.70;99.90;;;;;;5066260;28;20036;-72
2022/05/13 00:22:29;;;;;;;6.45;3.05;;;12.60;99.90;;;;;;5068622;28;20102;-72
2022/05/13 00:24:55;;;;;;;11.80;3.40;;;13.60;99.90;;;;;;5069087;28;20102;-73
2022/05/13 00:27:22;;;;;;;10.00;3.78;;;12.60;99.90;;;;;;5065863;28;20805;-73
2022/05/13 00:29:48;;;;;;;12.07;3.58;;;12.60;99.90;;;;;;5067989;28;20049;-73
2022/05/13 00:32:14;;;;;;;10.65;4.18;;;12.60;99.90;;;;;;5068227;28;20049;-72
2022/05/13 00:34:39;;;;;;;10.90;3.42;;;12.60;99.90;;;;;;5068947;28;20043;-73
2022/05/13 00:37:05;;;;;;;7.82;3.42;;;12.60;99.90;;;;;;5066200;28;20534;-74
2022/05/13 00:39:30;;;;;;;11.35;3.78;;;12.90;99.90;;;;;;5066715;28;20392;-71
2022/05/13 00:42:08;;;;;;;10.75;3.47;;;12.60;99.90;;;;;;5067524;28;20052;-72
2022/05/13 00:44:34;;;;;;;8.45;3.42;;;12.70;99.90;;;;;;5067292;28;20052;-73
2022/05/13 00:47:01;;;;;;;9.27;3.83;;;12.70;99.90;;;;;;5069037;28;20051;-72
2022/05/13 00:49:28;;;;;;;8.52;3.55;;;12.70;99.90;;;;;;5069877;28;20063;-73
2022/05/13 00:51:53;;;;;;;9.85;3.83;;;12.70;99.90;;;;;;5031162;28;20408;-72
2022/05/13 00:54:19;;;;;;;7.63;3.15;;;12.70;99.90;;;;;;5050699;28;20055;-73
2022/05/13 00:56:47;;;;;;;10.38;3.30;;;12.70;99.90;;;;;;5067885;28;20053;-73
2022/05/13 00:59:16;;;;;;;12.45;3.40;;;12.70;99.90;;;;;;5065852;28;20090;-73
2022/05/13 01:01:42;;;;;;;8.82;3.53;;;12.70;99.90;;;;;;5068474;28;20453;-73
2022/05/13 01:04:11;;;;;;;11.98;3.50;;;12.70;99.90;;;;;;5068670;28;20095;-73
2022/05/13 01:06:41;;;;;;;10.00;3.30;;;12.70;99.90;;;;;;5068623;28;20036;-73
2022/05/13 01:09:07;;;;;;;9.80;3.28;;;12.60;99.90;;;;;;5068823;28;20048;-72
2022/05/13 01:11:35;;;;;;;13.10;3.90;;;11.90;99.90;;;;;;5061554;28;20041;-73
2022/05/13 01:14:08;;;;;;;9.73;3.60;;;12.60;99.90;;;;;;5060170;28;20384;-73
2022/05/13 01:18:05;;;;;;;9.55;3.30;;;12.60;99.90;;;;;;5066372;28;20045;-73
2022/05/13 01:19:19;;;;;;;12.63;3.50;;;12.60;99.90;;;;;;5066744;28;20079;-73
2022/05/13 01:21:48;;;;;;;12.05;3.47;;;12.60;99.90;;;;;;5066218;28;20033;-73
2022/05/13 01:24:18;;;;;;;7.43;3.67;;;12.60;99.90;;;;;;5067765;28;20056;-73
2022/05/13 01:26:44;;;;;;;11.52;3.40;;;12.60;99.90;;;;;;5066906;28;20052;-72
2022/05/13 01:29:10;;;;;;;13.20;4.55;;;12.60;99.90;;;;;;5067973;28;20060;-73
2022/05/13 01:31:38;;;;;;;10.23;3.67;;;12.60;99.90;;;;;;5067786;28;20055;-73
2022/05/13 01:34:07;;;;;;;13.80;4.22;;;12.60;99.90;;;;;;5066960;28;20384;-73
2022/05/13 01:36:33;;;;;;;14.52;4.40;;;12.60;99.90;;;;;;5067546;28;20093;-73
2022/05/13 01:38:59;;;;;;;9.88;4.13;;;12.60;99.90;;;;;;5049601;28;20374;-73
2022/05/13 01:41:25;;;;;;;9.90;3.75;;;12.60;99.90;;;;;;5061688;28;20105;-73
2022/05/13 01:43:52;;;;;;;9.77;3.80;;;12.60;99.90;;;;;;5067144;28;20072;-73
2022/05/13 01:46:19;;;;;;;14.10;4.53;;;12.60;99.90;;;;;;5067521;28;20040;-73
2022/05/13 01:48:46;;;;;;;10.82;3.78;;;12.70;99.90;;;;;;5067262;28;20517;-72
2022/05/13 01:51:12;;;;;;;9.60;4.03;;;11.70;99.90;;;;;;5067386;28;20076;-73
2022/05/13 01:53:38;;;;;;;14.77;4.10;;;12.60;99.90;;;;;;5067718;28;20504;-73
2022/05/13 01:56:05;;;;;;;14.75;4.22;;;12.60;99.90;;;;;;5066143;28;20052;-73
2022/05/13 01:58:30;;;;;;;11.43;4.03;;;12.60;99.90;;;;;;5066946;28;20048;-73
2022/05/13 02:00:58;;;;;;;12.95;4.38;;;12.50;99.90;;;;;;5069121;28;20047;-72
2022/05/13 02:03:44;;;;;;;10.82;4.32;;;12.50;99.90;;;;;;5068983;28;20044;-73
2022/05/13 02:06:11;;;;;;;;;;;12.50;99.90;;;;;;5067857;28;20037;-73
2022/05/13 02:08:37;;;;;;;12.40;4.70;;;12.50;99.90;;;;;;5066706;28;19920;-73
2022/05/13 02:11:03;;;;;;;12.50;4.53;;;12.50;99.90;;;;;;5066831;28;20052;-73
2022/05/13 02:13:29;;;;;;;12.65;4.30;;;12.50;99.90;;;;;;5066952;28;20045;-73
2022/05/13 02:15:55;;;;;;;12.98;4.30;;;12.50;99.90;;;;;;5067431;28;20077;-73
2022/05/13 02:18:21;;;;;;;12.82;4.82;;;12.60;99.90;;;;;;5069821;28;20135;-73
2022/05/13 02:20:47;;;;;;;11.20;4.18;;;12.50;99.90;;;;;;5071418;28;20122;-72
2022/05/13 02:23:14;;;;;;;11.38;4.90;;;12.60;99.90;;;;;;5069301;28;20119;-73
2022/05/13 02:25:40;;;;;;;11.55;4.63;;;12.60;99.90;;;;;;5071327;28;20040;-73
2022/05/13 02:28:06;;;;;;;18.88;5.25;;;13.10;99.90;;;;;;5070366;28;20052;-72
2022/05/13 02:30:32;;;;;;;12.25;4.20;;;12.60;99.90;;;;;;5069373;28;20388;-73
2022/05/13 02:32:58;;;;;;;13.05;4.38;;;12.60;99.90;;;;;;5070889;28;20037;-73
2022/05/13 02:35:24;;;;;;;12.00;4.50;;;12.60;99.90;;;;;;5070224;28;20052;-72
2022/05/13 02:37:52;;;;;;;19.27;5.50;;;12.50;99.90;;;;;;5069963;28;20048;-73
2022/05/13 02:40:18;;;;;;;14.98;4.72;;;12.50;99.90;;;;;;5070651;28;20052;-73
2022/05/13 02:42:44;;;;;;;13.50;4.97;;;12.60;99.90;;;;;;5070149;28;20044;-73
2022/05/13 02:45:10;;;;;;;17.95;5.10;;;12.60;99.90;;;;;;5069930;28;20074;-73
2022/05/13 02:47:37;;;;;;;17.55;5.20;;;12.60;99.90;;;;;;5069990;28;20041;-72
2022/05/13 02:50:19;;;;;;;13.90;4.95;;;12.50;99.90;;;;;;5070066;28;20435;-72
2022/05/13 02:52:46;;;;;;;16.67;5.13;;;12.60;99.90;;;;;;5068162;28;20123;-72
2022/05/13 02:55:12;;;;;;;11.95;4.40;;;12.50;99.90;;;;;;5070062;28;20524;-72
2022/05/13 02:57:38;;;;;;;13.25;5.00;;;12.60;99.90;;;;;;5068084;28;20052;-73
2022/05/13 03:00:05;;;;;;;16.58;5.45;;;13.40;99.90;;;;;;5072070;28;20484;-72
2022/05/13 03:02:31;;;;;;;18.58;5.43;;;12.60;99.90;;;;;;5071317;28;20228;-72
2022/05/13 03:04:57;;;;;;;15.38;5.15;;;12.90;99.90;;;;;;5069753;28;20045;-72
2022/05/13 03:07:23;;;;;;;14.20;5.20;;;12.60;99.90;;;;;;5069320;28;20115;-72
2022/05/13 03:09:48;;;;;;;16.73;5.50;;;12.60;99.90;;;;;;5070788;28;20033;-73
2022/05/13 03:12:14;;;;;;;13.68;5.40;;;12.60;99.90;;;;;;5068350;28;20125;-73
2022/05/13 03:14:40;;;;;;;15.70;4.90;;;12.60;99.90;;;;;;5070079;28;20067;-73
2022/05/13 03:17:06;;;;;;;18.95;5.25;;;12.60;99.90;;;;;;5070140;28;20146;-73
2022/05/13 03:19:34;;;;;;;17.55;5.20;;;12.60;99.90;;;;;;5069879;28;20090;-73
2022/05/13 03:21:59;;;;;;;15.82;6.03;;;12.60;99.90;;;;;;5069983;28;20040;-73
2022/05/13 03:24:25;;;;;;;16.85;5.40;;;12.60;99.90;;;;;;5069906;28;20074;-73
2022/05/13 03:26:51;;;;;;;17.42;5.20;;;12.50;99.90;;;;;;5069005;28;20041;-73
2022/05/13 03:29:16;;;;;;;15.15;4.78;;;12.50;99.90;;;;;;5067842;28;20119;-73
2022/05/13 03:31:42;;;;;;;14.15;4.38;;;12.60;99.90;;;;;;5069763;28;20087;-73
2022/05/13 03:34:07;;;;;;;21.00;4.88;;;12.50;99.90;;;;;;5068945;28;20063;-73
2022/05/13 03:36:33;;;;;;;17.52;5.13;;;12.60;99.90;;;;;;5067913;28;20091;-73
2022/05/13 03:38:59;;;;;;;13.95;4.60;;;12.60;99.90;;;;;;5071887;28;20040;-73
2022/05/13 03:41:24;;;;;;;18.23;4.68;;;12.60;99.90;;;;;;5067589;28;20060;-73
2022/05/13 03:43:50;;;;;;;17.27;5.30;;;12.60;99.90;;;;;;5061788;28;20044;-73
2022/05/13 03:46:16;;;;;;;11.80;4.72;;;12.60;99.90;;;;;;5084793;28;20068;-73
2022/05/13 03:48:41;;;;;;;14.43;4.35;;;12.60;99.90;;;;;;5069461;28;20040;-73
2022/05/13 03:51:07;;;;;;;18.25;5.13;;;12.60;99.90;;;;;;5069441;28;20036;-73
2022/05/13 03:53:33;;;;;;;16.77;4.68;;;12.60;99.90;;;;;;5068170;28;20048;-73
2022/05/13 03:55:59;;;;;;;19.27;5.25;;;12.50;99.90;;;;;;5068542;28;20148;-73
2022/05/13 03:58:25;;;;;;;15.23;4.55;;;12.50;99.90;;;;;;5067884;28;20203;-73
2022/05/13 04:00:51;;;;;;;15.60;4.78;;;12.50;99.90;;;;;;5069232;28;20116;-73
2022/05/13 04:03:19;;;;;;;13.55;4.80;;;12.40;99.90;;;;;;5069088;28;20477;-73
2022/05/13 04:11:14;;;;;;;18.20;4.95;;;12.50;99.90;;;;;;5067742;28;20076;-73
2022/05/13 04:16:24;;;;;;;15.60;4.60;;;12.50;99.90;;;;;;5066808;28;20048;-73
2022/05/13 04:18:53;;;;;;;19.45;5.18;;;12.50;99.90;;;;;;5069259;28;20148;-73
2022/05/13 04:21:22;;;;;;;17.83;5.47;;;12.50;99.90;;;;;;5068177;28;20505;-73
2022/05/13 04:23:51;;;;;;;18.67;4.90;;;12.50;99.90;;;;;;5069349;28;20040;-73
2022/05/13 04:26:17;;;;;;;15.90;5.05;;;12.40;99.90;;;;;;5050555;28;20051;-73
2022/05/13 04:28:45;;;;;;;13.50;4.72;;;12.50;99.90;;;;;;5067991;28;20275;-73
2022/05/13 04:31:12;;;;;;;20.77;5.18;;;12.50;99.90;;;;;;5066671;28;20166;-73
2022/05/13 04:33:39;;;;;;;23.65;4.95;;;12.60;99.90;;;;;;5068643;28;20564;-73
2022/05/13 04:36:05;;;;;;;22.88;5.38;;;12.60;99.90;;;;;;5067925;28;20458;-73
2022/05/13 04:38:31;;;;;;;16.98;4.95;;;12.60;99.90;;;;;;5070531;28;20040;-73
2022/05/13 04:40:56;;;;;;;23.20;5.93;;;12.60;99.90;;;;;;5069352;28;20086;-74
2022/05/13 04:43:22;;;;;;;20.40;5.40;;;12.70;99.90;;;;;;5058862;28;20044;-73
2022/05/13 04:45:48;;;;;;;20.27;5.10;;;12.70;99.90;;;;;;5048932;28;20044;-74
2022/05/13 04:48:21;;;;;;;23.10;5.55;;;12.70;99.90;;;;;;5048034;28;20140;-73
2022/05/13 04:50:52;;;;;;;19.65;5.15;;;12.70;99.90;;;;;;5056420;28;20048;-72
2022/05/13 04:53:25;;;;;;;21.30;5.47;;;12.70;99.90;;;;;;5067104;28;20043;-73
2022/05/13 04:55:52;;;;;;;18.48;4.80;;;12.70;99.90;;;;;;5068232;28;20086;-72
2022/05/13 04:58:18;;;;;;;17.17;4.63;;;12.70;99.90;;;;;;5066351;28;20404;-73
2022/05/13 05:00:46;;;;;;;16.80;5.43;;;12.80;99.90;;;;;;5068785;28;20063;-73
2022/05/13 05:03:12;;;;;;;21.65;5.20;;;12.80;99.90;;;;;;5067745;28;20134;-73
2022/05/13 05:05:38;;;;;;;19.30;5.72;;;12.80;99.90;;;;;;5065465;28;20028;-72
2022/05/13 05:08:04;;;;;;;16.02;4.78;;;12.80;99.90;;;;;;5068037;28;20216;-72
2022/05/13 05:10:30;;;;;;;13.05;4.10;;;12.90;99.90;;;;;;5070582;28;20388;-72
2022/05/13 05:12:57;;;;;;;16.40;3.90;;;12.90;99.90;;;;;;5067832;28;20048;-72
2022/05/13 05:15:24;;;;;;;17.50;4.20;;;13.00;99.90;;;;;;5067661;28;20040;-73
2022/05/13 05:17:50;;;;;;;16.27;4.50;;;13.10;99.90;;;;;;5066640;28;20043;-72
2022/05/13 05:20:17;;;;;;;12.30;3.88;;;13.10;99.90;;;;;;5052540;28;20045;-73
2022/05/13 05:22:46;;;;;;;14.70;3.95;;;14.00;99.90;;;;;;5067489;28;20475;-73
2022/05/13 05:25:16;;;;;;;16.58;4.07;;;13.20;99.90;;;;;;5066595;28;20142;-73
2022/05/13 05:27:42;;;;;;;15.98;3.75;;;13.20;99.90;;;;;;5066641;28;20136;-73
2022/05/13 05:30:10;;;;;;;17.02;4.20;;;14.30;99.90;;;;;;5066589;28;20036;-73
2022/05/13 05:32:37;;;;;;;16.48;4.20;;;13.30;99.90;;;;;;5066139;28;20119;-73
2022/05/13 05:35:04;;;;;;;16.00;4.00;;;13.30;99.90;;;;;;5068218;28;20055;-73
2022/05/13 05:37:30;;;;;;;13.43;4.20;;;13.40;99.90;;;;;;5068241;28;20040;-73
2022/05/13 05:39:55;;;;;;;12.98;3.40;;;13.50;99.90;;;;;;5067906;28;20101;-73
2022/05/13 05:42:21;;;;;;;11.90;3.53;;;13.60;99.90;;;;;;5067333;28;20052;-74
2022/05/13 05:44:47;;;;;;;12.65;3.63;;;14.50;99.90;;;;;;5066695;28;20664;-73
2022/05/13 05:47:12;;;;;;;10.30;3.40;;;14.70;99.90;;;;;;5066933;28;20045;-73
2022/05/13 05:49:38;;;;;;;10.75;3.10;;;14.00;99.90;;;;;;5051549;28;20041;-73
2022/05/13 05:52:04;;;;;;;13.13;3.25;;;13.80;99.90;;;;;;5068407;28;20120;-73
2022/05/13 05:57:14;;;;;;;11.85;3.28;;;13.90;99.90;;;;;;5070332;28;20064;-73
2022/05/13 05:59:44;;;;;;;12.27;3.03;;;13.90;99.90;;;;;;5071052;28;20067;-73
2022/05/13 06:02:10;;;;;;;12.85;3.40;;;13.90;99.90;;;;;;5071124;28;20056;-72
2022/05/13 06:04:38;;;;;;;7.80;3.17;;;13.90;99.90;;;;;;5070414;28;20094;-72
2022/05/13 06:07:10;;;;;;;10.65;3.05;;;13.90;99.90;;;;;;5070189;28;20036;-73
2022/05/13 06:09:36;;;;;;;11.45;3.33;;;13.90;99.90;;;;;;5072710;28;20127;-73
2022/05/13 06:12:05;;;;;;;11.85;3.08;;;13.90;99.90;;;;;;5072500;28;20045;-74
2022/05/13 06:14:31;;;;;;;8.75;2.80;;;13.90;99.90;;;;;;5065824;28;20037;-73
2022/05/13 06:16:56;;;;;;;9.60;3.30;;;14.70;99.90;;;;;;5070804;28;20044;-72
2022/05/13 06:19:22;;;;;;;8.60;3.00;;;13.90;99.90;;;;;;5067804;28;20120;-73
2022/05/13 06:21:47;;;;;;;9.82;3.35;;;13.90;99.90;;;;;;5068941;28;20099;-74
2022/05/13 06:24:13;;;;;;;10.52;2.80;;;14.00;99.90;;;;;;5070621;28;20079;-73
2022/05/13 06:26:40;;;;;;;12.07;3.13;;;14.00;99.90;;;;;;5073827;28;20049;-73
2022/05/13 06:29:06;;;;;;;9.43;2.92;;;14.00;99.90;;;;;;5073930;28;20169;-74
2022/05/13 06:31:34;;;;;;;7.70;2.70;;;14.00;99.90;;;;;;5072344;28;20123;-74
2022/05/13 06:33:59;;;;;;;12.40;2.85;;;14.20;99.90;;;;;;5072432;28;20052;-74
2022/05/13 06:36:26;;;;;;;11.25;3.08;;;14.20;99.90;;;;;;5069283;28;20395;-74
2022/05/13 06:38:51;;;;;;;12.23;2.88;;;14.20;99.90;;;;;;5072573;28;20051;-73
2022/05/13 06:41:17;;;;;;;9.10;2.70;;;14.30;99.90;;;;;;5069919;28;20048;-74
2022/05/13 06:43:42;;;;;;;8.50;2.72;;;14.30;99.90;;;;;;5058479;28;20041;-74
2022/05/13 06:46:08;;;;;;;12.85;2.72;;;14.60;99.90;;;;;;5050456;28;20048;-74
2022/05/13 06:48:34;;;;;;;12.32;3.10;;;14.50;99.90;;;;;;5049108;28;20137;-73
2022/05/13 06:51:01;;;;;;;9.45;2.75;;;14.50;99.90;;;;;;5057489;28;20067;-73
2022/05/13 06:53:26;;;;;;;13.13;3.15;;;14.60;99.90;;;;;;5071750;28;20389;-73
2022/05/13 06:55:52;;;;;;;14.20;3.00;;;14.60;99.90;;;;;;5068927;28;20059;-73
2022/05/13 06:58:18;;;;;;;11.27;2.70;;;14.80;99.90;;;;;;5066878;28;20118;-73
2022/05/13 07:00:44;;;;;;;11.65;2.72;;;14.90;99.90;;;;;;5069728;28;20503;-73
2022/05/13 07:03:16;;;;;;;6.45;2.17;;;15.10;99.90;;;;;;5069773;28;20040;-73
2022/05/13 07:05:42;;;;;;;8.43;2.53;;;15.20;99.90;;;;;;5070091;28;20429;-72
2022/05/13 07:08:09;;;;;;;9.52;2.95;;;15.30;99.90;;;;;;5069528;28;20460;-72
2022/05/13 07:10:39;;;;;;;9.48;2.40;;;16.50;99.90;;;;;;5070045;28;20095;-72
2022/05/13 07:13:05;;;;;;;7.38;2.35;;;15.40;99.90;;;;;;5069173;28;20123;-72
2022/05/13 07:15:31;;;;;;;8.40;2.45;;;15.40;99.90;;;;;;5052231;28;20064;-73
2022/05/13 07:17:57;;;;;;;10.10;2.85;;;15.30;99.90;;;;;;5069176;28;20133;-73
2022/05/13 07:20:25;;;;;;;10.43;2.60;;;15.30;99.90;;;;;;5071285;28;20056;-73
2022/05/13 07:22:51;;;;;;;5.40;2.22;;;15.40;99.90;;;;;;5068458;28;20147;-73
2022/05/13 07:25:17;;;;;;;13.10;2.72;;;16.60;99.90;;;;;;5067426;28;20115;-73
2022/05/13 07:27:43;;;;;;;8.30;2.28;;;15.60;99.90;;;;;;5069324;28;20052;-73
2022/05/13 07:30:10;;;;;;;11.75;2.60;;;15.60;99.90;;;;;;5051729;28;20411;-73
2022/05/13 07:32:35;;;;;;;8.57;2.30;;;15.60;99.90;;;;;;5049451;28;20052;-72
2022/05/13 07:35:01;;;;;;;17.23;2.97;;;15.50;99.90;;;;;;5049296;28;20496;-72
2022/05/13 07:37:27;;;;;;;10.82;2.65;;;15.40;99.90;;;;;;5048535;28;20057;-73
2022/05/13 07:42:36;;;;;;;6.75;2.60;;;15.40;99.90;;;;;;5065844;28;20044;-73
2022/05/13 07:45:03;;;;;;;10.25;2.72;;;15.50;99.90;;;;;;5067660;28;20046;-74
2022/05/13 07:47:28;;;;;;;8.52;2.50;;;15.50;99.90;;;;;;5050812;28;20526;-73
2022/05/13 07:49:54;;;;;;;10.20;2.55;;;15.60;99.90;;;;;;5069089;28;20087;-75
2022/05/13 07:52:19;;;;;;;10.43;2.78;;;15.80;99.90;;;;;;5067800;28;20052;-74
2022/05/13 07:54:45;;;;;;;11.93;2.92;;;16.60;99.90;;;;;;5067211;28;20055;-73
2022/05/13 07:57:11;;;;;;;7.55;2.20;;;15.90;99.90;;;;;;5067557;28;20489;-73
2022/05/13 08:00:24;;;;;;;8.25;2.20;;;16.00;99.90;;;;;;5079270;28;20040;-73
2022/05/13 08:02:22;;;;;;;7.45;2.47;;;16.10;99.90;;;;;;5089654;28;20450;-73
2022/05/13 08:04:48;;;;;;;11.20;2.20;;;16.00;99.90;;;;;;5068914;28;20051;-71
2022/05/13 08:07:15;;;;;;;6.45;2.08;;;16.00;99.90;;;;;;5067115;28;20630;-72
2022/05/13 08:09:40;;;;;;;8.45;2.10;;;16.10;99.90;;;;;;5070669;28;20080;-72
2022/05/13 08:12:06;;;;;;;8.48;2.00;;;15.90;99.90;;;;;;5067660;28;20118;-72
2022/05/13 08:14:32;;;;;;;12.23;2.40;;;15.90;99.90;;;;;;5066163;28;20176;-72
2022/05/13 08:16:58;;;;;;;11.27;2.47;;;15.80;99.90;;;;;;5068442;28;20045;-72
2022/05/13 08:19:23;;;;;;;9.05;2.30;;;15.80;99.90;;;;;;5052341;28;20037;-72
2022/05/13 08:21:49;;;;;;;9.63;2.20;;;17.00;99.90;;;;;;5050250;28;20044;-72
2022/05/13 08:24:14;;;;;;;10.77;2.28;;;15.90;99.90;;;;;;5060237;28;20098;-72
2022/05/13 08:26:40;;;;;;;9.20;2.10;;;15.70;99.90;;;;;;5058813;28;20047;-72
2022/05/13 08:29:06;;;;;;;8.38;2.28;;;15.70;99.90;;;;;;5065173;28;20074;-71
2022/05/13 08:31:32;;;;;;;6.93;2.22;;;15.80;99.90;;;;;;5074846;28;20044;-72
2022/05/13 08:33:58;;;;;;;9.57;2.38;;;16.00;99.90;;;;;;5065802;28;20041;-71
2022/05/13 08:36:24;;;;;;;5.50;2.10;;;16.20;99.90;;;;;;5067299;28;20044;-71
2022/05/13 08:38:50;;;;;;;8.50;2.30;;;16.60;99.90;;;;;;5067464;28;20054;-70
2022/05/13 08:41:34;;;;;;;10.40;2.30;;;16.40;99.90;;;;;;5063584;28;20563;-70
2022/05/13 08:44:04;;;;;;;8.57;2.28;;;16.20;99.90;;;;;;5065085;28;20155;-71
2022/05/13 08:46:39;;;;;;;9.60;2.45;;;16.20;99.90;;;;;;5065624;28;20393;-71
2022/05/13 08:49:19;;;;;;;6.45;2.30;;;16.30;99.90;;;;;;5065785;28;20161;-71
2022/05/13 08:54:58;;;;;;;7.25;2.20;;;16.30;99.90;;;;;;5066342;28;20059;-74
2022/05/13 08:57:27;;;;;;;7.95;2.33;;;16.20;99.90;;;;;;5066190;28;20077;-74
2022/05/13 09:00:00;;;;;;;10.45;2.20;;;16.00;99.90;;;;;;5067110;28;20444;-73
2022/05/13 09:03:05;;;;;;;8.82;2.13;;;16.00;99.90;;;;;;5068898;28;20081;-75
2022/05/13 09:06:01;;;;;;;11.63;2.47;;;16.20;99.90;;;;;;5063877;28;20454;-73
2022/05/13 09:08:27;;;;;;;4.72;1.98;;;16.40;99.90;;;;;;5059949;28;20047;-73
2022/05/13 09:11:16;;;;;;;9.18;2.22;;;16.70;99.90;;;;;;5059152;28;20053;-74
2022/05/13 09:14:04;;;;;;;8.57;2.35;;;16.90;99.90;;;;;;5052427;28;20055;-71
2022/05/13 09:16:57;;;;;;;8.48;2.20;;;16.80;99.90;;;;;;5061285;28;20128;-71
2022/05/13 09:19:37;;;;;;;19.27;2.55;;;16.60;99.90;;;;;;5067246;28;20354;-72
2022/05/13 09:22:06;;;;;;;8.27;2.30;;;16.60;99.90;;;;;;5066536;28;20052;-73
2022/05/13 09:24:32;;;;;;;9.75;2.40;;;16.70;99.90;;;;;;5066946;28;20412;-72
2022/05/13 09:26:57;;;;;;;11.57;2.30;;;16.80;99.90;;;;;;5065000;28;20078;-72
2022/05/13 09:29:23;;;;;;;7.28;2.20;;;16.70;99.90;;;;;;5065585;28;20193;-72
2022/05/13 09:31:54;;;;;;;6.22;1.85;;;16.60;99.90;;;;;;5067414;28;20393;-72
2022/05/13 09:34:26;;;;;;;6.45;2.10;;;16.50;99.90;;;;;;5066133;28;20081;-72
2022/05/13 09:37:01;;;;;;;7.13;2.17;;;16.80;99.90;;;;;;5065739;28;20052;-71
2022/05/13 09:39:34;;;;;;;4.82;1.88;;;17.00;99.90;;;;;;5073664;28;20059;-72
2022/05/13 09:42:21;;;;;;;5.78;1.70;;;17.10;99.90;;;;;;5087059;28;20040;-72
2022/05/13 09:44:46;;;;;;;8.68;2.30;;;16.90;99.90;;;;;;5063924;28;20048;-72
2022/05/13 09:47:24;;;;;;;5.90;1.80;;;17.60;99.90;;;;;;5068857;28;20124;-72
2022/05/13 09:49:52;;;;;;;4.95;1.60;;;17.80;99.90;;;;;;5068330;28;20362;-72
2022/05/13 09:52:34;;;;;;;6.88;1.95;;;16.90;99.90;;;;;;5065169;28;20108;-73
2022/05/13 09:55:22;;;;;;;5.60;1.67;;;16.90;99.90;;;;;;5067544;28;20088;-74
2022/05/13 09:57:50;;;;;;;9.15;1.80;;;16.90;99.90;;;;;;5065712;28;20064;-72
2022/05/13 10:00:22;;;;;;;5.22;1.63;;;16.80;99.90;;;;;;5064338;28;20044;-72
2022/05/13 10:03:04;;;;;;;7.30;1.80;;;16.80;99.90;;;;;;5066150;28;20354;-72
2022/05/13 10:05:31;;;;;;;8.95;1.70;;;16.90;99.90;;;;;;5066276;28;20116;-71
2022/05/13 10:08:01;;;;;;;5.72;2.05;;;16.90;99.90;;;;;;5066767;28;20449;-71
2022/05/13 10:16:38;;;;;;;7.70;2.08;;;17.90;99.90;;;;;;5066226;28;20448;-71
2022/05/13 10:19:13;;;;;;;7.45;2.28;;;18.40;99.90;;;;;;5065878;28;20063;-72
2022/05/13 10:21:48;;;;;;;7.60;2.22;;;18.50;99.90;;;;;;5066756;28;20123;-72
2022/05/13 10:24:40;;;;;;;7.10;2.08;;;19.70;99.90;;;;;;5065295;28;20253;-72
2022/05/13 10:27:12;;;;;;;8.13;2.22;;;21.00;99.90;;;;;;5064660;28;20072;-73
2022/05/13 10:29:45;;;;;;;6.50;1.77;;;22.60;99.90;;;;;;5052438;28;20409;-73
2022/05/13 10:32:40;;;;;;;8.13;2.13;;;23.60;97.10;;;;;;5044860;28;20283;-73
2022/05/13 10:35:10;;;;;;;7.00;2.10;;;23.50;96.30;;;;;;5051955;28;20075;-73
2022/05/13 10:37:59;;;;;;;9.88;2.70;;;22.30;97.30;;;;;;5065577;28;20499;-73
2022/05/13 10:40:29;;;;;;;4.63;1.90;;;22.50;98.40;;;;;;5067752;28;20506;-72
2022/05/13 10:43:09;;;;;;;12.48;2.15;;;25.00;95.40;;;;;;5067467;28;20397;-72
2022/05/13 10:45:37;;;;;;;6.72;2.13;;;27.10;92.80;;;;;;5070551;28;20044;-71
2022/05/13 10:48:02;;;;;;;8.13;2.17;;;26.90;90.00;;;;;;5065918;28;20036;-71
2022/05/13 10:50:56;;;;;;;7.35;2.00;;;25.50;90.20;;;;;;5066459;28;20052;-71
2022/05/13 10:53:36;;;;;;;7.30;2.00;;;23.80;91.80;;;;;;5066538;28;20128;-71
2022/05/13 10:56:15;;;;;;;7.57;2.03;;;22.60;93.60;;;;;;5068219;28;20083;-72
2022/05/13 10:58:46;;;;;;;5.97;1.88;;;21.60;95.50;;;;;;5066433;28;20053;-71
2022/05/13 11:01:31;;;;;;;8.82;1.98;;;20.70;97.30;;;;;;5064495;28;20316;-72
2022/05/13 11:04:00;;;;;;;4.25;1.77;;;20.30;98.40;;;;;;5049056;28;20125;-71
2022/05/13 11:06:50;;;;;;;8.13;1.77;;;20.90;97.50;;;;;;5046592;28;20124;-71
2022/05/13 11:09:35;;;;;;;7.30;1.98;;;21.20;96.90;;;;;;5058485;28;20511;-71
2022/05/13 11:12:36;;;;;;;8.68;2.08;;;21.10;97.60;;;;;;5058709;28;20126;-71
2022/05/13 11:15:33;;;;;;;8.85;2.03;;;20.60;97.90;;;;;;5061429;28;20480;-71
2022/05/13 11:18:31;;;;;;;5.15;2.00;;;20.10;99.10;;;;;;5060422;28;20415;-71
2022/05/13 11:21:07;;;;;;;6.85;2.05;;;19.40;99.90;;;;;;5063603;28;20481;-71
2022/05/13 11:27:09;;;;;;;7.70;2.08;;;18.50;99.90;;;;;;5067151;28;19924;-71
2022/05/13 11:30:01;;;;;;;7.97;2.30;;;18.10;99.90;;;;;;5060650;28;20048;-71
2022/05/13 11:32:32;;;;;;;7.47;2.17;;;17.90;99.90;;;;;;5064657;28;20059;-70
2022/05/13 11:35:19;;;;;;;9.52;2.38;;;17.80;99.90;;;;;;5066127;28;20071;-71
2022/05/13 11:37:46;;;;;;;9.50;2.35;;;17.60;99.90;;;;;;5062739;28;20049;-71
2022/05/13 11:40:45;;;;;;;6.55;2.25;;;17.60;99.90;;;;;;5064062;28;20493;-70
2022/05/13 11:43:32;;;;;;;6.40;2.33;;;17.50;99.90;;;;;;5065925;28;20102;-71
2022/05/13 11:46:03;;;;;;;5.38;2.30;;;17.80;99.90;;;;;;5064721;28;20055;-71
2022/05/13 11:48:41;;;;;;;6.40;2.05;;;18.00;99.90;;;;;;5066118;28;20040;-69
2022/05/13 11:51:11;;;;;;;12.82;2.50;;;18.10;99.90;;;;;;5061231;28;20115;-69
2022/05/13 11:53:48;;;;;;;9.20;2.15;;;18.40;99.90;;;;;;5055911;28;20381;-71
2022/05/13 11:56:26;;;;;;;4.90;1.80;;;18.70;99.90;;;;;;5057739;28;20400;-72
2022/05/13 11:59:04;;;;;;;6.93;1.75;;;19.10;99.90;;;;;;5064513;28;20041;-72
2022/05/13 12:01:36;;;;;;;6.05;1.90;;;19.30;99.90;;;;;;5061303;28;20369;-71
2022/05/13 12:04:14;;;;;;;8.10;2.00;;;19.10;99.90;;;;;;5068801;28;20052;-72
2022/05/13 12:06:51;;;;;;;11.27;2.42;;;18.90;99.90;;;;;;5066527;28;20048;-72
2022/05/13 12:09:39;;;;;;;5.70;1.42;;;18.80;99.90;;;;;;5071360;28;20036;-71
2022/05/13 12:12:23;;;;;;;5.25;1.60;;;19.10;99.90;;;;;;5070866;28;20173;-72
2022/05/13 12:15:03;;;;;;;5.93;2.15;;;18.40;99.90;;;;;;5062607;28;20052;-71
2022/05/13 12:17:46;;;;;;;9.40;2.35;;;18.20;99.90;;;;;;5066967;28;20052;-72
2022/05/13 12:20:20;;;;;;;9.48;2.30;;;18.00;99.90;;;;;;5065691;28;20131;-71
2022/05/13 12:23:10;;;;;;;9.27;2.47;;;17.90;99.90;;;;;;5066835;28;20036;-71
2022/05/13 12:25:47;;;;;;;10.20;2.28;;;17.70;99.90;;;;;;5066386;28;20535;-71
2022/05/13 12:28:15;;;;;;;8.73;2.50;;;17.70;99.90;;;;;;5065621;28;20143;-71
2022/05/13 12:30:42;;;;;;;8.05;2.10;;;18.00;99.90;;;;;;5069465;28;20140;-71
2022/05/13 12:33:20;;;;;;;10.00;2.67;;;18.80;99.90;;;;;;5068609;28;20044;-71
2022/05/13 12:39:21;;;;;;;8.82;2.13;;;18.60;99.90;;;;;;5068389;28;20091;-71
2022/05/13 12:42:02;;;;;;;7.63;2.00;;;18.50;99.90;;;;;;5065831;28;20507;-71
2022/05/13 12:44:30;;;;;;;7.38;1.80;;;18.40;99.90;;;;;;5068017;28;20056;-71
2022/05/13 12:47:14;;;;;;;9.70;2.63;;;18.50;99.90;;;;;;5066057;28;20044;-71
2022/05/13 12:49:49;;;;;;;7.93;2.35;;;18.70;99.90;;;;;;5068575;28;20052;-71
2022/05/13 12:52:27;;;;;;;6.18;1.80;;;18.80;99.90;;;;;;5067410;28;20097;-71
2022/05/13 12:55:10;;;;;;;6.50;1.88;;;18.90;99.90;;;;;;5065417;28;20493;-71
2022/05/13 12:58:05;;;;;;;7.65;2.28;;;18.90;99.90;;;;;;5051446;28;20379;-71
2022/05/13 13:00:46;;;;;;;6.32;2.10;;;18.80;99.90;;;;;;5046029;28;20088;-71
2022/05/13 13:03:14;;;;;;;9.45;2.00;;;18.60;99.90;;;;;;5047515;28;20051;-71
2022/05/13 13:05:45;;;;;;;9.40;2.40;;;18.50;99.90;;;;;;5047212;28;20053;-71
2022/05/13 13:08:15;;;;;;;8.63;2.45;;;18.40;99.90;;;;;;5045454;28;20041;-71
2022/05/13 13:11:08;;;;;;;8.73;2.47;;;18.40;99.90;;;;;;5047938;28;20204;-71
2022/05/13 13:13:45;;;;;;;7.72;2.33;;;18.30;99.90;;;;;;5047189;28;20049;-72
2022/05/13 13:16:26;;;;;;;8.40;2.20;;;18.30;99.90;;;;;;5047066;28;20049;-72
2022/05/13 13:19:13;;;;;;;6.15;2.00;;;18.40;99.90;;;;;;5048428;28;20611;-70
2022/05/13 13:21:40;;;;;;;5.15;1.80;;;18.70;99.90;;;;;;5047131;28;20073;-70
2022/05/13 13:24:14;;;;;;;16.13;2.20;;;18.80;99.90;;;;;;5045775;28;20060;-72
2022/05/13 13:26:42;;;;;;;6.97;1.95;;;18.80;99.90;;;;;;5046487;28;20049;-71
2022/05/13 13:29:08;;;;;;;8.07;2.40;;;18.90;99.90;;;;;;5054276;28;20041;-71